Time;durP1;ratioP1;P1;durP2;ratioP2;P2;SDS_P1;SDS_P2;PMS_P1;PMS_P2;Temp;Humidity;BMP_temperature;BMP_pressure;BME280_temperature;BME280_humidity;BME280_pressure;Samples;Min_cycle;Max_cycle;Signal;HPM_P1;HPM_P2
2023/05/08 00:01:57;;;;;;;22.80;20.45;;;12.30;99.90;;;;;;5050243;28;20049;-58
2023/05/08 00:04:23;;;;;;;23.25;20.83;;;12.30;99.90;;;;;;5050722;28;20051;-60
2023/05/08 00:06:50;;;;;;;24.42;20.95;;;12.30;99.90;;;;;;5050632;28;20037;-60
2023/05/08 00:09:16;;;;;;;25.48;22.05;;;12.30;99.90;;;;;;5049190;28;20044;-60
2023/05/08 00:11:41;;;;;;;23.50;20.92;;;12.30;99.90;;;;;;5050890;28;20116;-60
2023/05/08 00:14:07;;;;;;;22.75;20.45;;;12.30;99.90;;;;;;5050518;28;20037;-60
2023/05/08 00:16:33;;;;;;;23.13;20.83;;;12.30;99.90;;;;;;5050771;28;20040;-59
2023/05/08 00:18:59;;;;;;;26.15;21.75;;;12.20;99.90;;;;;;5050066;28;20045;-60
2023/05/08 00:21:25;;;;;;;;;;;12.20;99.90;;;;;;5051278;28;20076;-59
2023/05/08 00:23:50;;;;;;;23.40;20.90;;;12.10;99.90;;;;;;5049630;28;19966;-60
2023/05/08 00:26:16;;;;;;;22.67;20.33;;;12.10;99.90;;;;;;5050304;28;20037;-60
2023/05/08 00:28:41;;;;;;;22.23;19.83;;;12.10;99.90;;;;;;5049890;28;20048;-59
2023/05/08 00:31:07;;;;;;;22.90;20.43;;;12.10;99.90;;;;;;5051060;28;20400;-59
2023/05/08 00:33:32;;;;;;;23.38;20.17;;;12.10;99.90;;;;;;5048640;28;20035;-59
2023/05/08 00:36:02;;;;;;;23.67;21.27;;;12.00;99.90;;;;;;5050644;28;20409;-58
2023/05/08 00:38:32;;;;;;;24.60;21.92;;;12.00;99.90;;;;;;5049672;28;20287;-59
2023/05/08 00:40:58;;;;;;;23.67;21.25;;;11.90;99.90;;;;;;5050672;28;20045;-59
2023/05/08 00:43:26;;;;;;;23.75;20.95;;;11.90;99.90;;;;;;5050088;28;20047;-59
2023/05/08 00:45:54;;;;;;;24.92;21.45;;;11.90;99.90;;;;;;5033312;28;20044;-60
2023/05/08 00:48:22;;;;;;;22.77;20.33;;;11.80;99.90;;;;;;5049162;28;20116;-60
2023/05/08 00:50:48;;;;;;;22.30;20.10;;;11.80;99.90;;;;;;5050294;28;20044;-59
2023/05/08 00:53:14;;;;;;;22.48;20.27;;;11.80;99.90;;;;;;5049319;28;20179;-59
2023/05/08 00:55:40;;;;;;;23.27;20.73;;;11.80;99.90;;;;;;5050163;28;20123;-57
2023/05/08 00:58:06;;;;;;;21.77;19.63;;;11.80;99.90;;;;;;5048005;28;20124;-59
2023/05/08 01:00:32;;;;;;;;;;;11.80;99.90;;;;;;5050464;28;20048;-58
2023/05/08 01:02:59;;;;;;;23.45;20.90;;;11.80;99.90;;;;;;5049929;28;19917;-59
2023/05/08 01:05:27;;;;;;;22.58;20.17;;;11.70;99.90;;;;;;5049064;28;20420;-59
2023/05/08 01:07:52;;;;;;;23.55;20.27;;;11.70;99.90;;;;;;5049134;28;20099;-59
2023/05/08 01:10:18;;;;;;;22.30;20.05;;;11.70;99.90;;;;;;5049936;28;20425;-61
2023/05/08 01:13:02;;;;;;;22.15;19.90;;;11.70;99.90;;;;;;5049828;28;20535;-61
2023/05/08 01:15:37;;;;;;;22.88;20.42;;;11.70;99.90;;;;;;5049377;28;20080;-60
2023/05/08 01:18:26;;;;;;;22.50;20.20;;;11.70;99.90;;;;;;5048636;28;20033;-59
2023/05/08 01:20:58;;;;;;;22.30;19.65;;;11.70;99.90;;;;;;5028121;28;20045;-60
2023/05/08 01:23:57;;;;;;;21.95;19.75;;;11.70;99.90;;;;;;5028130;28;20041;-60
2023/05/08 01:26:34;;;;;;;21.77;19.45;;;11.60;99.90;;;;;;5007955;28;20383;-59
2023/05/08 01:29:26;;;;;;;21.67;19.15;;;11.60;99.90;;;;;;5032096;28;20039;-59
2023/05/08 01:32:18;;;;;;;22.95;19.10;;;11.60;99.90;;;;;;5048437;28;20045;-59
2023/05/08 01:34:56;;;;;;;22.30;19.92;;;11.50;99.90;;;;;;5048711;28;20033;-59
2023/05/08 01:37:31;;;;;;;20.73;18.63;;;11.50;99.90;;;;;;5047809;28;20116;-59
2023/05/08 01:40:15;;;;;;;22.13;18.63;;;11.50;99.90;;;;;;5049403;28;20067;-59
2023/05/08 01:42:56;;;;;;;21.73;19.42;;;11.40;99.90;;;;;;5049707;28;20037;-59
2023/05/08 01:45:27;;;;;;;21.83;19.63;;;11.40;99.90;;;;;;5047377;28;20052;-59
2023/05/08 01:48:10;;;;;;;21.77;19.55;;;11.30;99.90;;;;;;5048046;28;20116;-60
2023/05/08 01:50:41;;;;;;;21.77;18.48;;;11.20;99.90;;;;;;5049271;28;20049;-59
2023/05/08 01:53:31;;;;;;;21.02;18.75;;;11.20;99.90;;;;;;5049790;28;20051;-58
2023/05/08 01:56:02;;;;;;;19.75;17.75;;;11.10;99.90;;;;;;5048746;28;20049;-58
2023/05/08 01:58:29;;;;;;;21.10;18.90;;;11.10;99.90;;;;;;5048882;28;20043;-60
2023/05/08 02:00:56;;;;;;;22.58;18.10;;;11.00;99.90;;;;;;5049161;28;20120;-60
2023/05/08 02:03:23;;;;;;;24.13;20.30;;;11.00;99.90;;;;;;5048476;28;20055;-58
2023/05/08 02:05:51;;;;;;;22.08;19.67;;;10.90;99.90;;;;;;5054020;28;20036;-57
2023/05/08 02:08:19;;;;;;;24.58;19.40;;;10.90;99.90;;;;;;5051352;28;20424;-58
2023/05/08 02:10:48;;;;;;;20.58;18.40;;;10.80;99.90;;;;;;5049076;28;20055;-57
2023/05/08 02:13:17;;;;;;;23.17;19.25;;;10.80;99.90;;;;;;5049092;28;20041;-56
2023/05/08 02:15:47;;;;;;;26.08;20.00;;;10.70;99.90;;;;;;5048184;28;20033;-57
2023/05/08 02:18:17;;;;;;;21.13;18.90;;;10.70;99.90;;;;;;5048774;28;20421;-59
2023/05/08 02:20:43;;;;;;;20.67;18.52;;;10.60;99.90;;;;;;5047880;28;20053;-60
2023/05/08 02:23:10;;;;;;;21.30;19.05;;;10.60;99.90;;;;;;5047706;28;20497;-59
2023/05/08 02:25:36;;;;;;;26.50;20.90;;;10.50;99.90;;;;;;5031162;28;20048;-59
2023/05/08 02:28:04;;;;;;;22.05;18.67;;;10.50;99.90;;;;;;5048161;28;20071;-59
2023/05/08 02:30:30;;;;;;;22.13;19.83;;;10.50;99.90;;;;;;5047656;28;20222;-59
2023/05/08 02:32:57;;;;;;;20.52;18.42;;;10.40;99.90;;;;;;5050418;28;20047;-59
2023/05/08 02:35:24;;;;;;;21.63;18.95;;;10.40;99.90;;;;;;5052369;28;20041;-59
2023/05/08 02:37:52;;;;;;;21.38;19.05;;;10.40;99.90;;;;;;5051440;28;20439;-59
2023/05/08 02:40:21;;;;;;;21.23;18.42;;;10.40;99.90;;;;;;5052727;28;20115;-60
2023/05/08 02:42:47;;;;;;;21.05;18.13;;;10.40;99.90;;;;;;5052297;28;20076;-58
2023/05/08 02:45:13;;;;;;;21.98;19.42;;;10.40;99.90;;;;;;5051917;28;20063;-59
2023/05/08 02:48:14;;;;;;;23.75;18.55;;;10.40;99.90;;;;;;5051332;28;20497;-59
2023/05/08 02:50:56;;;;;;;21.17;17.88;;;10.40;99.90;;;;;;5036062;28;20408;-59
2023/05/08 02:53:36;;;;;;;20.10;17.95;;;10.40;99.90;;;;;;5050861;28;20098;-59
2023/05/08 02:56:10;;;;;;;19.52;17.35;;;10.40;99.90;;;;;;5051453;28;20041;-60
2023/05/08 02:58:44;;;;;;;20.35;18.25;;;10.40;99.90;;;;;;5050744;28;20152;-59
2023/05/08 03:01:40;;;;;;;21.35;17.02;;;10.40;99.90;;;;;;5052001;28;20047;-60
2023/05/08 03:04:09;;;;;;;19.13;17.05;;;10.50;99.90;;;;;;5049041;28;20049;-60
2023/05/08 03:06:44;;;;;;;19.63;17.63;;;10.50;99.90;;;;;;5051320;28;20051;-59
2023/05/08 03:09:21;;;;;;;21.83;16.00;;;10.50;99.90;;;;;;5051780;28;20049;-60
2023/05/08 03:11:49;;;;;;;20.25;17.90;;;10.50;99.90;;;;;;5052258;28;20545;-58
2023/05/08 03:14:19;;;;;;;18.30;16.40;;;10.60;99.90;;;;;;5051956;28;20478;-58
2023/05/08 03:16:46;;;;;;;21.45;16.20;;;10.60;99.90;;;;;;5050554;28;20037;-59
2023/05/08 03:19:24;;;;;;;18.25;16.05;;;10.60;99.90;;;;;;5051625;28;20044;-58
2023/05/08 03:21:52;;;;;;;21.42;15.85;;;10.60;99.90;;;;;;5051732;28;20118;-59
2023/05/08 03:24:19;;;;;;;18.90;17.00;;;10.60;99.90;;;;;;5052152;28;20037;-59
2023/05/08 03:26:45;;;;;;;18.35;16.45;;;10.60;99.90;;;;;;5050735;28;20037;-59
2023/05/08 03:29:13;;;;;;;20.10;16.73;;;10.50;99.90;;;;;;5051167;28;20044;-59
2023/05/08 03:31:41;;;;;;;17.42;15.40;;;10.40;99.90;;;;;;5050098;28;20171;-59
2023/05/08 03:34:08;;;;;;;19.85;15.93;;;10.40;99.90;;;;;;5046833;28;20122;-59
2023/05/08 03:36:34;;;;;;;15.38;13.88;;;10.40;99.90;;;;;;5051944;28;20033;-60
2023/05/08 03:39:00;;;;;;;17.05;15.30;;;10.40;99.90;;;;;;5050444;28;20064;-59
2023/05/08 03:41:26;;;;;;;;;;;10.40;99.90;;;;;;5051813;28;20029;-57
2023/05/08 03:43:53;;;;;;;17.05;13.25;;;10.40;99.90;;;;;;5049063;28;20495;-57
2023/05/08 03:46:20;;;;;;;17.50;15.70;;;10.40;99.90;;;;;;5051131;28;20040;-62
2023/05/08 03:48:47;;;;;;;18.25;16.35;;;10.40;99.90;;;;;;5054360;28;20041;-57
2023/05/08 03:51:14;;;;;;;17.95;16.20;;;10.40;99.90;;;;;;5057334;28;20040;-58
2023/05/08 03:53:40;;;;;;;19.48;17.48;;;10.50;99.90;;;;;;5051495;28;20028;-57
2023/05/08 03:56:05;;;;;;;21.80;16.30;;;10.50;99.90;;;;;;5050846;28;20033;-59
2023/05/08 03:58:47;;;;;;;19.08;17.08;;;10.50;99.90;;;;;;5050314;28;20040;-57
2023/05/08 04:01:24;;;;;;;18.30;16.13;;;10.50;99.90;;;;;;5051526;28;20051;-57
2023/05/08 04:04:06;;;;;;;19.73;17.65;;;10.50;99.90;;;;;;5050328;28;20037;-58
2023/05/08 04:07:02;;;;;;;19.75;17.75;;;10.50;99.90;;;;;;5050349;28;20129;-57
2023/05/08 04:09:39;;;;;;;21.50;18.35;;;10.60;99.90;;;;;;5050042;28;20041;-57
2023/05/08 04:12:15;;;;;;;22.30;18.83;;;10.50;99.90;;;;;;5049497;28;20045;-58
2023/05/08 04:14:55;;;;;;;21.52;17.35;;;10.50;99.90;;;;;;5029402;28;20041;-59
2023/05/08 04:17:58;;;;;;;20.25;18.05;;;10.40;99.90;;;;;;5032429;28;20073;-59
2023/05/08 04:20:26;;;;;;;19.77;17.67;;;10.40;99.90;;;;;;5051076;28;20471;-59
2023/05/08 04:22:53;;;;;;;19.92;17.83;;;10.30;99.90;;;;;;5050437;28;20099;-58
2023/05/08 04:25:20;;;;;;;20.83;18.25;;;10.30;99.90;;;;;;5049863;28;20082;-57
2023/05/08 04:27:46;;;;;;;;;;;10.30;99.90;;;;;;5050003;28;20045;-57
2023/05/08 04:30:12;;;;;;;20.65;18.25;;;10.40;99.90;;;;;;5050925;28;19927;-58
2023/05/08 04:32:38;;;;;;;20.95;18.80;;;10.40;99.90;;;;;;5050512;28;20033;-58
2023/05/08 04:35:04;;;;;;;20.00;16.80;;;10.40;99.90;;;;;;5050555;28;20549;-58
2023/05/08 04:37:30;;;;;;;19.75;17.65;;;10.40;99.90;;;;;;5049715;28;20313;-59
2023/05/08 04:39:56;;;;;;;;;;;10.50;99.90;;;;;;5050923;28;20033;-59
2023/05/08 04:42:23;;;;;;;21.73;18.50;;;10.50;99.90;;;;;;5050543;28;19928;-58
2023/05/08 04:44:49;;;;;;;20.17;16.83;;;10.50;99.90;;;;;;5049899;28;20090;-59
2023/05/08 04:47:14;;;;;;;22.75;17.15;;;10.50;99.90;;;;;;5030312;28;20041;-59
2023/05/08 04:49:40;;;;;;;19.67;17.58;;;10.60;99.90;;;;;;5041912;28;20045;-58
2023/05/08 04:52:06;;;;;;;18.73;16.75;;;10.60;99.90;;;;;;5050099;28;20408;-58
2023/05/08 04:54:32;;;;;;;18.75;16.90;;;10.70;99.90;;;;;;5049810;28;20409;-59
2023/05/08 04:56:58;;;;;;;19.20;15.88;;;10.70;99.90;;;;;;5049928;28;20045;-57
2023/05/08 04:59:26;;;;;;;19.77;17.30;;;10.70;99.90;;;;;;5047803;28;20525;-58
2023/05/08 05:01:52;;;;;;;18.75;16.48;;;10.70;99.90;;;;;;5046273;28;20044;-57
2023/05/08 05:04:17;;;;;;;23.20;16.63;;;10.70;99.90;;;;;;5050111;28;20041;-59
2023/05/08 05:06:43;;;;;;;17.70;15.87;;;10.70;99.90;;;;;;5049678;28;20040;-59
2023/05/08 05:09:09;;;;;;;17.85;15.95;;;10.70;99.90;;;;;;5049098;28;20037;-59
2023/05/08 05:11:35;;;;;;;17.00;15.38;;;10.70;99.90;;;;;;5047983;28;20041;-59
2023/05/08 05:14:00;;;;;;;17.35;15.57;;;10.70;99.90;;;;;;5049873;28;20040;-58
2023/05/08 05:16:26;;;;;;;17.45;15.63;;;10.70;99.90;;;;;;5048956;28;20059;-60
2023/05/08 05:18:52;;;;;;;16.48;14.98;;;10.80;99.90;;;;;;5049237;28;20067;-60
2023/05/08 05:21:18;;;;;;;17.67;15.07;;;10.80;99.90;;;;;;5049263;28;20119;-59
2023/05/08 05:23:44;;;;;;;19.20;17.13;;;10.80;99.90;;;;;;5048905;28;20037;-57
2023/05/08 05:26:10;;;;;;;19.45;17.13;;;10.80;99.90;;;;;;5047744;28;20114;-59
2023/05/08 05:28:36;;;;;;;17.27;15.57;;;10.90;99.90;;;;;;5049266;28;20047;-59
2023/05/08 05:31:01;;;;;;;18.73;16.63;;;10.90;99.90;;;;;;5048108;28;20115;-59
2023/05/08 05:33:27;;;;;;;23.60;16.45;;;11.00;99.90;;;;;;5045297;28;20040;-59
2023/05/08 05:35:53;;;;;;;18.48;16.67;;;11.20;99.90;;;;;;5033554;28;20040;-59
2023/05/08 05:38:18;;;;;;;20.03;17.93;;;11.30;99.90;;;;;;5051592;28;20045;-58
2023/05/08 05:40:44;;;;;;;19.17;17.25;;;11.40;99.90;;;;;;5055205;28;20287;-58
2023/05/08 05:43:10;;;;;;;19.20;16.88;;;11.50;99.90;;;;;;5049686;28;20052;-57
2023/05/08 05:45:35;;;;;;;20.63;17.23;;;11.60;99.90;;;;;;5049415;28;20040;-58
2023/05/08 05:48:01;;;;;;;17.98;16.13;;;11.60;99.90;;;;;;5046568;28;20048;-59
2023/05/08 05:50:27;;;;;;;17.90;16.00;;;11.70;99.90;;;;;;5048478;28;20072;-59
2023/05/08 05:52:53;;;;;;;18.05;16.35;;;11.80;99.90;;;;;;5049193;28;20037;-57
2023/05/08 05:55:19;;;;;;;17.85;14.32;;;11.90;99.90;;;;;;5046144;28;20037;-57
2023/05/08 05:57:45;;;;;;;18.70;15.70;;;12.00;99.90;;;;;;5046675;28;20056;-59
2023/05/08 06:00:11;;;;;;;15.13;13.70;;;12.00;99.90;;;;;;5039344;28;21160;-57
2023/05/08 06:02:37;;;;;;;15.73;13.43;;;12.10;99.90;;;;;;5048463;28;20479;-58
2023/05/08 06:05:03;;;;;;;16.25;14.55;;;12.20;99.90;;;;;;5048785;28;20041;-58
2023/05/08 06:07:29;;;;;;;20.23;15.30;;;12.20;99.90;;;;;;5047946;28;20120;-58
2023/05/08 06:09:55;;;;;;;16.23;13.55;;;12.30;99.90;;;;;;5050727;28;20140;-58
2023/05/08 06:12:21;;;;;;;14.02;12.73;;;12.40;99.90;;;;;;5053347;28;20047;-58
2023/05/08 06:14:46;;;;;;;;;;;12.50;99.90;;;;;;5052980;28;20041;-57
2023/05/08 06:17:12;;;;;;;14.25;12.82;;;12.60;99.90;;;;;;5052915;28;19962;-58
2023/05/08 06:19:38;;;;;;;23.33;14.15;;;12.60;99.90;;;;;;5052701;28;20041;-58
2023/05/08 06:22:03;;;;;;;14.43;12.87;;;12.60;99.90;;;;;;5053024;28;20043;-59
2023/05/08 06:24:29;;;;;;;18.13;14.40;;;12.60;99.90;;;;;;5052963;28;20622;-59
2023/05/08 06:26:55;;;;;;;15.30;13.70;;;12.60;99.90;;;;;;5052884;28;20440;-59
2023/05/08 06:29:20;;;;;;;14.60;13.25;;;12.70;99.90;;;;;;5051946;28;20520;-59
2023/05/08 06:31:46;;;;;;;15.90;14.27;;;12.70;99.90;;;;;;5052195;28;20126;-57
2023/05/08 06:34:12;;;;;;;14.95;13.48;;;12.80;99.90;;;;;;5052239;28;20512;-58
2023/05/08 06:36:37;;;;;;;14.48;12.85;;;12.90;99.90;;;;;;5046594;28;20033;-60
2023/05/08 06:39:04;;;;;;;24.48;13.02;;;13.00;99.90;;;;;;5052188;28;20037;-61
2023/05/08 06:41:30;;;;;;;13.95;12.45;;;13.10;99.90;;;;;;5052732;28;20049;-58
2023/05/08 06:43:56;;;;;;;13.88;12.45;;;13.10;99.90;;;;;;5049235;28;20041;-59
2023/05/08 06:46:21;;;;;;;13.85;12.63;;;13.20;99.90;;;;;;5042506;28;20441;-59
2023/05/08 06:48:47;;;;;;;17.00;13.00;;;13.30;99.90;;;;;;5051536;28;20119;-60
2023/05/08 06:51:13;;;;;;;13.52;12.15;;;13.30;99.90;;;;;;5050668;28;20063;-60
2023/05/08 06:53:38;;;;;;;15.30;13.80;;;13.30;99.90;;;;;;5051779;28;20033;-60
2023/05/08 06:56:04;;;;;;;18.45;13.70;;;13.40;99.90;;;;;;5050461;28;20037;-59
2023/05/08 06:58:31;;;;;;;14.55;13.25;;;13.50;99.90;;;;;;5048898;28;20056;-60
2023/05/08 07:00:59;;;;;;;14.00;12.70;;;13.60;99.90;;;;;;5049838;28;20132;-59
2023/05/08 07:03:25;;;;;;;14.15;12.82;;;13.50;99.90;;;;;;5051473;28;20493;-59
2023/05/08 07:05:51;;;;;;;20.17;14.88;;;13.60;99.90;;;;;;5051598;28;20040;-59
2023/05/08 07:08:16;;;;;;;14.98;13.63;;;13.60;99.90;;;;;;5051333;28;20482;-59
2023/05/08 07:10:42;;;;;;;14.30;12.88;;;13.60;99.90;;;;;;5048044;28;20120;-59
2023/05/08 07:13:08;;;;;;;13.88;12.55;;;13.70;99.90;;;;;;5052075;28;20504;-59
2023/05/08 07:15:33;;;;;;;14.10;12.60;;;13.80;99.90;;;;;;5051491;28;20059;-60
2023/05/08 07:17:59;;;;;;;13.50;12.30;;;13.80;99.90;;;;;;5050667;28;20509;-60
2023/05/08 07:20:25;;;;;;;15.02;13.63;;;13.90;99.90;;;;;;5049458;28;20102;-60
2023/05/08 07:22:50;;;;;;;22.85;12.55;;;14.00;99.90;;;;;;5033563;28;20085;-59
2023/05/08 07:25:16;;;;;;;16.40;14.15;;;14.10;99.90;;;;;;5051616;28;20053;-59
2023/05/08 07:27:44;;;;;;;15.73;12.63;;;14.20;99.90;;;;;;5050940;28;20558;-60
2023/05/08 07:30:10;;;;;;;15.23;13.75;;;14.20;99.90;;;;;;5051998;28;20117;-61
2023/05/08 07:32:37;;;;;;;17.23;12.30;;;14.40;99.90;;;;;;5051527;28;20064;-61
2023/05/08 07:35:04;;;;;;;13.90;12.70;;;14.50;99.90;;;;;;5050656;28;20049;-60
2023/05/08 07:37:31;;;;;;;16.92;14.30;;;14.60;99.90;;;;;;5038986;28;20501;-61
2023/05/08 07:39:57;;;;;;;13.50;12.40;;;14.60;99.90;;;;;;5051121;28;20067;-60
2023/05/08 07:42:23;;;;;;;13.48;12.23;;;14.70;99.90;;;;;;5051179;28;20509;-61
2023/05/08 07:44:48;;;;;;;15.60;13.68;;;14.70;99.90;;;;;;5051079;28;20040;-60
2023/05/08 07:47:14;;;;;;;15.57;13.98;;;14.80;99.90;;;;;;5050751;28;20448;-60
2023/05/08 07:49:40;;;;;;;15.23;13.57;;;15.00;99.90;;;;;;5050391;28;20037;-60
2023/05/08 07:52:05;;;;;;;15.85;14.02;;;15.00;99.90;;;;;;5047211;28;20397;-61
2023/05/08 07:54:31;;;;;;;15.15;13.40;;;15.10;99.90;;;;;;5051346;28;20165;-61
2023/05/08 07:56:56;;;;;;;14.02;12.73;;;15.20;99.90;;;;;;5050594;28;20040;-62
2023/05/08 07:59:22;;;;;;;15.13;13.73;;;15.20;99.90;;;;;;5050827;28;20459;-61
2023/05/08 08:01:47;;;;;;;14.75;13.18;;;15.30;99.90;;;;;;5051586;28;20111;-60
2023/05/08 08:04:13;;;;;;;15.25;13.38;;;15.40;99.90;;;;;;5044886;28;20489;-61
2023/05/08 08:06:39;;;;;;;13.75;12.35;;;15.40;99.90;;;;;;5051034;28;20044;-60
2023/05/08 08:09:05;;;;;;;;;;;15.50;99.90;;;;;;5050235;28;20041;-60
2023/05/08 08:11:31;;;;;;;13.05;11.80;;;15.70;99.90;;;;;;5053585;28;19942;-60
2023/05/08 08:13:56;;;;;;;13.27;12.13;;;15.80;99.90;;;;;;5057048;28;20041;-59
2023/05/08 08:16:22;;;;;;;14.00;12.70;;;15.90;99.90;;;;;;5052328;28;20044;-56
2023/05/08 08:18:48;;;;;;;14.23;12.80;;;16.00;99.90;;;;;;5050175;28;20088;-60
2023/05/08 08:21:13;;;;;;;15.05;13.45;;;16.10;99.90;;;;;;5047012;28;20069;-60
2023/05/08 08:23:39;;;;;;;13.77;12.40;;;16.20;99.90;;;;;;5048286;28;20039;-59
2023/05/08 08:26:05;;;;;;;15.50;13.07;;;16.20;99.90;;;;;;5049271;28;20067;-60
2023/05/08 08:28:30;;;;;;;14.75;13.35;;;16.30;99.90;;;;;;5039548;28;20441;-60
2023/05/08 08:30:56;;;;;;;13.80;12.50;;;16.30;99.90;;;;;;5049831;28;20366;-58
2023/05/08 08:33:22;;;;;;;14.43;13.02;;;16.40;99.90;;;;;;5050229;28;20115;-59
2023/05/08 08:35:48;;;;;;;14.27;12.98;;;16.50;99.90;;;;;;5050316;28;20382;-61
2023/05/08 08:38:13;;;;;;;13.98;12.57;;;16.70;99.90;;;;;;5031675;28;20575;-60
2023/05/08 08:40:42;;;;;;;13.10;12.10;;;16.80;99.90;;;;;;5050127;28;20033;-60
2023/05/08 08:43:08;;;;;;;13.15;12.00;;;16.80;99.90;;;;;;5050280;28;20045;-60
2023/05/08 08:45:35;;;;;;;;;;;16.90;99.90;;;;;;5050818;28;20052;-60
2023/05/08 08:48:02;;;;;;;12.70;11.57;;;17.00;99.90;;;;;;5040217;28;19920;-60
2023/05/08 08:50:32;;;;;;;13.65;12.40;;;17.10;99.90;;;;;;5050374;28;20117;-60
2023/05/08 08:53:09;;;;;;;14.48;13.07;;;17.20;99.90;;;;;;5049766;28;20447;-60
2023/05/08 08:55:39;;;;;;;14.32;12.68;;;17.20;99.90;;;;;;5050202;28;20102;-60
2023/05/08 08:58:21;;;;;;;15.55;13.98;;;17.30;99.90;;;;;;5049046;28;20124;-61
2023/05/08 09:00:49;;;;;;;15.60;13.85;;;17.40;99.90;;;;;;5050467;28;20067;-60
2023/05/08 09:03:15;;;;;;;17.58;13.50;;;17.40;99.90;;;;;;5049538;28;20044;-61
2023/05/08 09:05:42;;;;;;;;;;;17.40;99.90;;;;;;5050274;28;20083;-61
2023/05/08 09:08:09;;;;;;;14.85;13.27;;;17.50;99.90;;;;;;5048639;28;19921;-60
2023/05/08 09:10:35;;;;;;;15.43;13.95;;;17.60;99.90;;;;;;5050305;28;20037;-61
2023/05/08 09:13:04;;;;;;;15.70;14.23;;;17.70;99.90;;;;;;5050104;28;20127;-61
2023/05/08 09:15:31;;;;;;;18.00;14.05;;;17.70;99.90;;;;;;5047974;28;20040;-61
2023/05/08 09:17:57;;;;;;;14.98;13.68;;;17.60;99.90;;;;;;5049094;28;20036;-61
2023/05/08 09:20:24;;;;;;;15.85;14.23;;;17.60;99.90;;;;;;5050024;28;20037;-61
2023/05/08 09:22:51;;;;;;;15.38;13.52;;;17.60;99.90;;;;;;5049942;28;20075;-61
2023/05/08 09:25:17;;;;;;;17.55;14.23;;;17.60;99.90;;;;;;5049222;28;20107;-61
2023/05/08 09:27:43;;;;;;;15.85;14.15;;;17.60;99.90;;;;;;5048734;28;20509;-61
2023/05/08 09:30:11;;;;;;;15.15;13.63;;;17.50;99.90;;;;;;5049165;28;20033;-61
2023/05/08 09:32:41;;;;;;;16.85;14.30;;;17.50;99.90;;;;;;5049890;28;20436;-61
2023/05/08 09:35:08;;;;;;;15.80;14.40;;;17.50;99.90;;;;;;5048861;28;20065;-61
2023/05/08 09:37:38;;;;;;;17.80;15.77;;;17.50;99.90;;;;;;5046770;28;20053;-62
2023/05/08 09:40:17;;;;;;;16.20;14.77;;;17.50;99.90;;;;;;5047524;28;20051;-61
2023/05/08 09:42:43;;;;;;;15.68;14.07;;;17.60;99.90;;;;;;5046989;28;20067;-61
2023/05/08 09:45:10;;;;;;;;;;;17.60;99.90;;;;;;5048904;28;20098;-61
2023/05/08 09:47:38;;;;;;;15.93;14.20;;;17.70;99.90;;;;;;5043989;28;19929;-61
2023/05/08 09:50:09;;;;;;;17.20;15.40;;;17.80;99.90;;;;;;5042487;28;20033;-61
2023/05/08 09:52:37;;;;;;;16.52;15.02;;;17.90;99.90;;;;;;5038673;28;20064;-61
2023/05/08 09:55:07;;;;;;;15.55;14.15;;;18.00;99.90;;;;;;5047137;28;20041;-61
2023/05/08 09:57:37;;;;;;;15.88;14.32;;;18.20;99.90;;;;;;5038870;28;20049;-61
2023/05/08 10:00:12;;;;;;;19.35;16.02;;;18.30;99.90;;;;;;5049511;28;20099;-61
2023/05/08 10:02:41;;;;;;;17.73;15.20;;;18.50;99.90;;;;;;5040001;28;20458;-61
2023/05/08 10:05:29;;;;;;;16.38;14.70;;;18.60;99.90;;;;;;5043738;28;20139;-62
2023/05/08 10:07:56;;;;;;;16.45;14.85;;;18.50;99.90;;;;;;5046042;28;20554;-61
2023/05/08 10:10:30;;;;;;;16.90;15.30;;;18.60;99.90;;;;;;5041668;28;20062;-63
2023/05/08 10:12:57;;;;;;;19.00;15.48;;;18.80;99.90;;;;;;5029054;28;20042;-61
2023/05/08 10:15:24;;;;;;;17.25;15.48;;;18.90;99.90;;;;;;5031091;28;20121;-61
2023/05/08 10:18:01;;;;;;;17.10;15.40;;;18.90;99.90;;;;;;5047652;28;20098;-61
2023/05/08 10:20:30;;;;;;;15.90;14.40;;;18.90;99.90;;;;;;5046293;28;20098;-62
2023/05/08 10:22:56;;;;;;;16.85;15.32;;;19.00;99.90;;;;;;5048543;28;20056;-62
2023/05/08 10:25:23;;;;;;;16.98;15.18;;;19.10;99.90;;;;;;5048324;28;20052;-61
2023/05/08 10:28:13;;;;;;;18.33;16.45;;;19.20;99.90;;;;;;5046375;28;20048;-62
2023/05/08 10:30:47;;;;;;;19.70;15.40;;;19.20;99.90;;;;;;5048771;28;20044;-62
2023/05/08 10:33:16;;;;;;;17.33;15.63;;;19.20;99.90;;;;;;5028934;28;20045;-61
2023/05/08 10:35:43;;;;;;;15.82;14.32;;;19.20;99.90;;;;;;5029258;28;20393;-62
2023/05/08 10:38:10;;;;;;;16.02;14.55;;;19.30;99.90;;;;;;5047303;28;20040;-62
2023/05/08 10:40:36;;;;;;;;;;;19.30;99.90;;;;;;5048604;28;20037;-62
2023/05/08 10:43:04;;;;;;;17.63;15.82;;;19.30;99.90;;;;;;5030411;28;19924;-62
2023/05/08 10:45:30;;;;;;;17.70;16.10;;;19.40;99.90;;;;;;5050850;28;20037;-61
2023/05/08 10:48:25;;;;;;;17.73;15.93;;;19.50;99.90;;;;;;5051665;28;20114;-61
2023/05/08 10:51:06;;;;;;;18.05;16.25;;;19.70;99.90;;;;;;5047118;28;20175;-61
2023/05/08 10:53:56;;;;;;;16.85;15.25;;;19.70;99.90;;;;;;5029029;28;20402;-60
2023/05/08 10:56:28;;;;;;;18.60;16.02;;;19.80;99.90;;;;;;5034904;28;20052;-61
2023/05/08 10:58:57;;;;;;;17.98;16.15;;;19.90;99.90;;;;;;5050889;28;20033;-62
2023/05/08 11:01:24;;;;;;;17.50;15.80;;;20.00;99.90;;;;;;5040548;28;20402;-62
2023/05/08 11:03:50;;;;;;;20.75;16.38;;;20.00;99.90;;;;;;5049862;28;20041;-62
2023/05/08 11:06:16;;;;;;;17.58;15.85;;;20.10;99.90;;;;;;5051688;28;20045;-62
2023/05/08 11:08:48;;;;;;;17.15;15.45;;;20.20;99.90;;;;;;5051446;28;20116;-62
2023/05/08 11:11:26;;;;;;;17.42;15.75;;;20.30;99.90;;;;;;5051066;28;20128;-62
2023/05/08 11:14:18;;;;;;;24.20;17.33;;;20.50;99.90;;;;;;5031871;28;20033;-62
2023/05/08 11:16:53;;;;;;;15.73;14.27;;;20.70;99.90;;;;;;5034410;28;20402;-62
2023/05/08 11:19:20;;;;;;;16.40;14.70;;;20.80;99.90;;;;;;5051215;28;20059;-62
2023/05/08 11:22:11;;;;;;;20.38;16.35;;;20.80;99.90;;;;;;5051644;28;20121;-62
2023/05/08 11:24:38;;;;;;;17.00;15.20;;;21.00;99.90;;;;;;5049843;28;20678;-62
2023/05/08 11:27:04;;;;;;;17.70;16.00;;;21.10;99.90;;;;;;5052139;28;20033;-62
2023/05/08 11:29:30;;;;;;;;;;;21.20;99.90;;;;;;5050160;28;20413;-62
2023/05/08 11:31:56;;;;;;;21.73;17.23;;;21.30;99.90;;;;;;5051553;28;20012;-59
2023/05/08 11:34:40;;;;;;;;;;;21.30;99.90;;;;;;5052378;28;20043;-60
2023/05/08 11:37:09;;;;;;;16.60;15.10;;;21.40;99.90;;;;;;5051495;28;20415;-60
2023/05/08 11:39:35;;;;;;;18.48;15.95;;;21.50;99.90;;;;;;5051150;28;20048;-61
2023/05/08 11:42:19;;;;;;;;;;;21.60;99.90;;;;;;5051994;28;20048;-60
2023/05/08 11:44:45;;;;;;;18.38;16.38;;;21.60;99.90;;;;;;5051030;28;19924;-60
2023/05/08 11:47:14;;;;;;;;;;;21.70;99.90;;;;;;5047864;28;20037;-60
2023/05/08 11:49:41;;;;;;;20.23;15.80;;;21.70;99.90;;;;;;5050582;28;19966;-61
2023/05/08 11:52:06;;;;;;;18.00;15.85;;;21.70;99.90;;;;;;5050262;28;20041;-60
2023/05/08 11:54:32;;;;;;;;;;;21.90;99.90;;;;;;5051480;28;20094;-60
2023/05/08 11:56:58;;;;;;;18.13;16.40;;;21.90;99.90;;;;;;5050447;28;19995;-58
2023/05/08 11:59:23;;;;;;;;;;;22.10;99.90;;;;;;5031163;28;20053;-61
2023/05/08 12:01:49;;;;;;;19.73;16.50;;;22.20;99.90;;;;;;5034546;28;20376;-61
2023/05/08 12:04:15;;;;;;;19.45;17.58;;;22.20;99.90;;;;;;5049963;28;20080;-61
2023/05/08 12:06:41;;;;;;;;;;;22.10;99.90;;;;;;5050635;28;20079;-60
2023/05/08 12:09:16;;;;;;;22.20;16.73;;;22.00;99.90;;;;;;5048927;28;20011;-62
2023/05/08 12:11:44;;;;;;;17.95;16.25;;;22.10;99.90;;;;;;5048176;28;20036;-60
2023/05/08 12:14:11;;;;;;;21.17;18.00;;;22.10;99.90;;;;;;5049590;28;20110;-60
2023/05/08 12:16:38;;;;;;;19.38;17.45;;;22.10;99.90;;;;;;5050648;28;20536;-61
2023/05/08 12:19:10;;;;;;;19.05;17.10;;;22.10;99.90;;;;;;5050239;28;20040;-61
2023/05/08 12:21:36;;;;;;;18.90;17.10;;;22.10;99.90;;;;;;5050957;28;20044;-61
2023/05/08 12:24:06;;;;;;;;;;;22.20;99.90;;;;;;5025276;28;20049;-61
2023/05/08 12:26:36;;;;;;;21.20;17.42;;;22.30;99.90;;;;;;5031585;28;19967;-62
2023/05/08 12:29:05;;;;;;;19.17;17.27;;;22.40;99.90;;;;;;5041398;28;20106;-61
2023/05/08 12:31:35;;;;;;;18.65;16.63;;;22.40;99.90;;;;;;5051088;28;20043;-61
2023/05/08 12:34:02;;;;;;;17.77;16.17;;;22.30;99.90;;;;;;5037858;28;20142;-61
2023/05/08 12:36:28;;;;;;;17.55;15.85;;;22.30;99.90;;;;;;5030344;28;20044;-61
2023/05/08 12:39:07;;;;;;;;;;;22.20;99.90;;;;;;5038779;28;20457;-61
2023/05/08 12:41:33;;;;;;;18.98;16.80;;;22.10;99.90;;;;;;5039975;28;20278;-61
2023/05/08 12:43:58;;;;;;;;;;;21.90;99.90;;;;;;5050430;28;20041;-61